Hakon Mosby — LJIT — position and weather

sailwx.info

Track history (hours):
 
Tides and Currents Weather Stations Pressure Air Temp Water Temp Dewpoint Dewpoint Depression Visibility Wind Speed Wind Dir Waves Ship Positions

Oceanographic research ship Hakon Mosby (Norway)

Detailed information on ship capabilities available from University of Delaware's Ocean Information Center and ARCUS's ALIAS (Arctic Logistics Information and Support) project.

Last reported at 2016-Sep-19 07:24 UTC. Time now 2016-Sep-26 12:21 UTC.
Position N 59°58' E 005°52'.

Type: Dredging. MMSI: 258244000.

Date/timePositionNaut miles runAvg speedWind from/ knotsBaromVisibWave heightAir tempDewpointWater temp
2016-Sep-19 07:24N 59°58' E 005°52'2 2.5
2016-Sep-19 06:31N 59°57' E 005°48'0 0.1
2016-Sep-19 03:32N 59°57' E 005°47'4 4.6
2016-Sep-19 02:34N 59°54' E 005°43'2210.8
2016-Sep-19 00:33N 59°36' E 005°17'122 4.1
2016-Sep-17 19:11N 60°04' E 001°21'15 1.7
2016-Sep-17 10:14N 60°05' E 000°51'3 4.8
2016-Sep-17 09:33N 60°08' E 000°48'  
2016-Sep-14 22:18N 60°21' W 000°05'7 8.8
2016-Sep-14 21:32N 60°14' W 000°02'16 3.9
2016-Sep-14 17:33N 60°28' E 000°10'  
Track history (hours):
 
Tides and Currents Weather Stations Pressure Air Temp Water Temp Dewpoint Dewpoint Depression Visibility Wind Speed Wind Dir Waves Ship Positions

Oceanographic research ship Hakon Mosby (Norway)

Detailed information on ship capabilities available from University of Delaware's Ocean Information Center and ARCUS's ALIAS (Arctic Logistics Information and Support) project.

Last reported at 2016-Sep-19 07:24 UTC. Time now 2016-Sep-26 12:21 UTC.
Position N 59°58' E 005°52'.

Type: Dredging. MMSI: 258244000.

Date/timePositionNaut miles runAvg speedWind from/ knotsBaromVisibWave heightAir tempDewpointWater temp
2016-Sep-19 07:24N 59°58' E 005°52'2 2.5
2016-Sep-19 06:31N 59°57' E 005°48'0 0.1
2016-Sep-19 03:32N 59°57' E 005°47'4 4.6
2016-Sep-19 02:34N 59°54' E 005°43'2210.8
2016-Sep-19 00:33N 59°36' E 005°17'122 4.1
2016-Sep-17 19:11N 60°04' E 001°21'15 1.7
2016-Sep-17 10:14N 60°05' E 000°51'3 4.8
2016-Sep-17 09:33N 60°08' E 000°48'  
2016-Sep-14 22:18N 60°21' W 000°05'7 8.8
2016-Sep-14 21:32N 60°14' W 000°02'16 3.9
2016-Sep-14 17:33N 60°28' E 000°10'  

Dump ship's entire track history